sensor_id;sensor_type;location;lat;lon;timestamp;P1;durP1;ratioP1;P2;durP2;ratioP2
82805;SDS011;72558;51.000;-3.112;2023-10-19T00:00:12;5.6;;;0.7;;
82805;SDS011;72558;51.000;-3.112;2023-10-19T00:02:46;6.3;;;0.7;;
82805;SDS011;72558;51.000;-3.112;2023-10-19T00:05:20;5.3;;;0.8;;
82805;SDS011;72558;51.000;-3.112;2023-10-19T00:07:53;8.0;;;0.8;;
82805;SDS011;72558;51.000;-3.112;2023-10-19T00:10:26;6.2;;;0.9;;
82805;SDS011;72558;51.000;-3.112;2023-10-19T00:12:59;8.1;;;0.8;;
82805;SDS011;72558;51.000;-3.112;2023-10-19T00:15:32;10.6;;;0.9;;
82805;SDS011;72558;51.000;-3.112;2023-10-19T00:18:04;6.7;;;0.7;;
82805;SDS011;72558;51.000;-3.112;2023-10-19T00:20:37;7.0;;;0.7;;
82805;SDS011;72558;51.000;-3.112;2023-10-19T00:23:10;4.2;;;0.7;;
82805;SDS011;72558;51.000;-3.112;2023-10-19T00:25:43;8.3;;;0.9;;
82805;SDS011;72558;51.000;-3.112;2023-10-19T00:28:16;8.1;;;1.2;;
82805;SDS011;72558;51.000;-3.112;2023-10-19T00:30:49;8.1;;;1.2;;
82805;SDS011;72558;51.000;-3.112;2023-10-19T00:33:22;5.8;;;0.9;;
82805;SDS011;72558;51.000;-3.112;2023-10-19T00:35:54;6.2;;;1.0;;
82805;SDS011;72558;51.000;-3.112;2023-10-19T00:38:27;7.5;;;0.9;;
82805;SDS011;72558;51.000;-3.112;2023-10-19T00:41:00;9.8;;;1.1;;
82805;SDS011;72558;51.000;-3.112;2023-10-19T00:43:33;8.7;;;1.2;;
82805;SDS011;72558;51.000;-3.112;2023-10-19T00:46:09;5.3;;;0.9;;
82805;SDS011;72558;51.000;-3.112;2023-10-19T00:48:41;5.0;;;0.8;;
82805;SDS011;72558;51.000;-3.112;2023-10-19T00:51:16;3.7;;;0.5;;
82805;SDS011;72558;51.000;-3.112;2023-10-19T00:53:52;7.5;;;1.1;;
82805;SDS011;72558;51.000;-3.112;2023-10-19T00:56:25;5.7;;;1.2;;
82805;SDS011;72558;51.000;-3.112;2023-10-19T00:58:58;6.8;;;0.6;;
82805;SDS011;72558;51.000;-3.112;2023-10-19T01:01:31;4.9;;;0.6;;
82805;SDS011;72558;51.000;-3.112;2023-10-19T01:04:05;8.4;;;1.2;;
82805;SDS011;72558;51.000;-3.112;2023-10-19T01:06:37;7.9;;;0.9;;
82805;SDS011;72558;51.000;-3.112;2023-10-19T01:09:10;7.3;;;1.3;;
82805;SDS011;72558;51.000;-3.112;2023-10-19T01:11:43;8.7;;;1.1;;
82805;SDS011;72558;51.000;-3.112;2023-10-19T01:14:16;18.3;;;1.8;;
82805;SDS011;72558;51.000;-3.112;2023-10-19T01:16:50;18.3;;;2.4;;
82805;SDS011;72558;51.000;-3.112;2023-10-19T01:19:23;16.5;;;2.4;;
82805;SDS011;72558;51.000;-3.112;2023-10-19T01:21:56;18.3;;;2.4;;
82805;SDS011;72558;51.000;-3.112;2023-10-19T01:24:28;21.9;;;2.7;;
82805;SDS011;72558;51.000;-3.112;2023-10-19T01:27:01;22.9;;;2.6;;
82805;SDS011;72558;51.000;-3.112;2023-10-19T01:29:34;23.0;;;3.3;;
82805;SDS011;72558;51.000;-3.112;2023-10-19T01:32:07;28.3;;;3.6;;
82805;SDS011;72558;51.000;-3.112;2023-10-19T01:34:39;25.0;;;4.0;;
82805;SDS011;72558;51.000;-3.112;2023-10-19T01:37:12;28.5;;;3.4;;
82805;SDS011;72558;51.000;-3.112;2023-10-19T01:39:45;25.9;;;4.1;;
82805;SDS011;72558;51.000;-3.112;2023-10-19T01:42:18;23.9;;;3.4;;
82805;SDS011;72558;51.000;-3.112;2023-10-19T01:44:51;31.9;;;3.9;;
82805;SDS011;72558;51.000;-3.112;2023-10-19T01:47:23;35.6;;;4.5;;
82805;SDS011;72558;51.000;-3.112;2023-10-19T01:49:56;27.4;;;4.8;;
82805;SDS011;72558;51.000;-3.112;2023-10-19T01:52:29;31.6;;;4.1;;
82805;SDS011;72558;51.000;-3.112;2023-10-19T01:55:01;29.8;;;4.3;;
82805;SDS011;72558;51.000;-3.112;2023-10-19T01:57:34;27.0;;;4.0;;
82805;SDS011;72558;51.000;-3.112;2023-10-19T02:00:07;32.8;;;4.9;;
82805;SDS011;72558;51.000;-3.112;2023-10-19T02:02:40;25.3;;;3.5;;
82805;SDS011;72558;51.000;-3.112;2023-10-19T02:05:13;32.1;;;4.8;;
82805;SDS011;72558;51.000;-3.112;2023-10-19T02:07:46;24.5;;;3.7;;
82805;SDS011;72558;51.000;-3.112;2023-10-19T02:10:18;32.5;;;4.2;;
82805;SDS011;72558;51.000;-3.112;2023-10-19T02:12:51;31.8;;;4.3;;
82805;SDS011;72558;51.000;-3.112;2023-10-19T02:15:24;26.2;;;4.8;;
82805;SDS011;72558;51.000;-3.112;2023-10-19T02:17:57;26.8;;;4.0;;
82805;SDS011;72558;51.000;-3.112;2023-10-19T02:20:29;34.7;;;4.8;;
82805;SDS011;72558;51.000;-3.112;2023-10-19T02:23:02;30.0;;;4.5;;
82805;SDS011;72558;51.000;-3.112;2023-10-19T02:25:37;29.5;;;4.9;;
82805;SDS011;72558;51.000;-3.112;2023-10-19T02:28:09;28.3;;;4.0;;
82805;SDS011;72558;51.000;-3.112;2023-10-19T02:30:42;28.4;;;4.0;;
82805;SDS011;72558;51.000;-3.112;2023-10-19T02:33:15;33.5;;;4.6;;
82805;SDS011;72558;51.000;-3.112;2023-10-19T02:35:47;32.6;;;4.7;;
82805;SDS011;72558;51.000;-3.112;2023-10-19T02:38:20;34.2;;;5.4;;
82805;SDS011;72558;51.000;-3.112;2023-10-19T02:40:53;30.7;;;4.1;;
82805;SDS011;72558;51.000;-3.112;2023-10-19T02:43:26;26.2;;;3.4;;
82805;SDS011;72558;51.000;-3.112;2023-10-19T02:45:59;31.9;;;4.7;;
82805;SDS011;72558;51.000;-3.112;2023-10-19T02:48:31;30.1;;;3.7;;
82805;SDS011;72558;51.000;-3.112;2023-10-19T02:51:04;30.6;;;4.1;;
82805;SDS011;72558;51.000;-3.112;2023-10-19T02:53:37;26.1;;;3.0;;
82805;SDS011;72558;51.000;-3.112;2023-10-19T02:56:10;22.9;;;3.6;;
82805;SDS011;72558;51.000;-3.112;2023-10-19T02:58:43;24.3;;;2.7;;
82805;SDS011;72558;51.000;-3.112;2023-10-19T03:01:17;16.0;;;1.7;;
82805;SDS011;72558;51.000;-3.112;2023-10-19T03:03:51;10.5;;;1.6;;
82805;SDS011;72558;51.000;-3.112;2023-10-19T03:06:24;5.1;;;1.1;;
82805;SDS011;72558;51.000;-3.112;2023-10-19T03:08:57;7.2;;;0.8;;
82805;SDS011;72558;51.000;-3.112;2023-10-19T03:11:31;5.6;;;0.7;;
82805;SDS011;72558;51.000;-3.112;2023-10-19T03:14:04;4.6;;;0.5;;
82805;SDS011;72558;51.000;-3.112;2023-10-19T03:16:36;4.1;;;0.4;;
82805;SDS011;72558;51.000;-3.112;2023-10-19T03:19:10;3.8;;;0.5;;
82805;SDS011;72558;51.000;-3.112;2023-10-19T03:21:43;7.8;;;0.7;;
82805;SDS011;72558;51.000;-3.112;2023-10-19T03:24:15;4.7;;;0.6;;
82805;SDS011;72558;51.000;-3.112;2023-10-19T03:26:49;7.3;;;0.8;;
82805;SDS011;72558;51.000;-3.112;2023-10-19T03:29:21;8.9;;;0.8;;
82805;SDS011;72558;51.000;-3.112;2023-10-19T03:31:54;7.3;;;0.8;;
82805;SDS011;72558;51.000;-3.112;2023-10-19T03:34:27;10.9;;;1.1;;
82805;SDS011;72558;51.000;-3.112;2023-10-19T03:36:59;12.4;;;1.1;;
82805;SDS011;72558;51.000;-3.112;2023-10-19T03:39:32;8.8;;;1.1;;
82805;SDS011;72558;51.000;-3.112;2023-10-19T03:42:05;11.6;;;1.1;;
82805;SDS011;72558;51.000;-3.112;2023-10-19T03:44:38;12.7;;;1.4;;
82805;SDS011;72558;51.000;-3.112;2023-10-19T03:47:11;9.4;;;1.5;;
82805;SDS011;72558;51.000;-3.112;2023-10-19T03:49:44;11.2;;;1.0;;
82805;SDS011;72558;51.000;-3.112;2023-10-19T03:52:16;10.7;;;1.0;;
82805;SDS011;72558;51.000;-3.112;2023-10-19T03:54:49;10.4;;;1.1;;
82805;SDS011;72558;51.000;-3.112;2023-10-19T03:57:22;8.2;;;1.2;;
82805;SDS011;72558;51.000;-3.112;2023-10-19T03:59:55;11.1;;;1.3;;
82805;SDS011;72558;51.000;-3.112;2023-10-19T04:02:27;18.6;;;2.0;;
82805;SDS011;72558;51.000;-3.112;2023-10-19T04:05:00;17.9;;;1.9;;
82805;SDS011;72558;51.000;-3.112;2023-10-19T04:07:33;17.7;;;1.8;;
82805;SDS011;72558;51.000;-3.112;2023-10-19T04:10:06;15.6;;;2.0;;
82805;SDS011;72558;51.000;-3.112;2023-10-19T04:12:39;18.9;;;2.2;;
82805;SDS011;72558;51.000;-3.112;2023-10-19T04:15:12;17.3;;;2.0;;
82805;SDS011;72558;51.000;-3.112;2023-10-19T04:17:45;22.6;;;2.2;;
82805;SDS011;72558;51.000;-3.112;2023-10-19T04:20:18;21.2;;;2.1;;
82805;SDS011;72558;51.000;-3.112;2023-10-19T04:22:51;18.0;;;2.2;;
82805;SDS011;72558;51.000;-3.112;2023-10-19T04:25:24;23.4;;;3.4;;
82805;SDS011;72558;51.000;-3.112;2023-10-19T04:27:56;19.6;;;2.1;;
82805;SDS011;72558;51.000;-3.112;2023-10-19T04:30:29;28.0;;;2.5;;
82805;SDS011;72558;51.000;-3.112;2023-10-19T04:33:02;25.5;;;3.1;;
82805;SDS011;72558;51.000;-3.112;2023-10-19T04:35:35;27.0;;;2.2;;
82805;SDS011;72558;51.000;-3.112;2023-10-19T04:38:08;26.0;;;2.8;;
82805;SDS011;72558;51.000;-3.112;2023-10-19T04:40:41;21.8;;;2.6;;
82805;SDS011;72558;51.000;-3.112;2023-10-19T04:43:13;25.2;;;3.4;;
82805;SDS011;72558;51.000;-3.112;2023-10-19T04:45:46;19.7;;;2.3;;
82805;SDS011;72558;51.000;-3.112;2023-10-19T04:48:19;30.5;;;2.9;;
82805;SDS011;72558;51.000;-3.112;2023-10-19T04:50:52;20.5;;;3.2;;
82805;SDS011;72558;51.000;-3.112;2023-10-19T04:53:24;22.5;;;2.6;;
82805;SDS011;72558;51.000;-3.112;2023-10-19T04:55:57;25.7;;;2.7;;
82805;SDS011;72558;51.000;-3.112;2023-10-19T04:58:30;20.1;;;2.6;;
82805;SDS011;72558;51.000;-3.112;2023-10-19T05:01:02;28.9;;;2.7;;
82805;SDS011;72558;51.000;-3.112;2023-10-19T05:03:35;21.7;;;2.5;;
82805;SDS011;72558;51.000;-3.112;2023-10-19T05:06:08;24.8;;;3.6;;
82805;SDS011;72558;51.000;-3.112;2023-10-19T05:08:41;32.9;;;3.0;;
82805;SDS011;72558;51.000;-3.112;2023-10-19T05:11:14;26.3;;;3.2;;
82805;SDS011;72558;51.000;-3.112;2023-10-19T05:13:46;31.5;;;3.0;;
82805;SDS011;72558;51.000;-3.112;2023-10-19T05:16:19;29.3;;;3.1;;
82805;SDS011;72558;51.000;-3.112;2023-10-19T05:18:52;25.3;;;2.7;;
82805;SDS011;72558;51.000;-3.112;2023-10-19T05:21:25;30.0;;;2.6;;
82805;SDS011;72558;51.000;-3.112;2023-10-19T05:23:58;27.7;;;3.3;;
82805;SDS011;72558;51.000;-3.112;2023-10-19T05:26:30;21.0;;;2.8;;
82805;SDS011;72558;51.000;-3.112;2023-10-19T05:29:05;27.2;;;2.8;;
82805;SDS011;72558;51.000;-3.112;2023-10-19T05:31:38;24.2;;;2.8;;
82805;SDS011;72558;51.000;-3.112;2023-10-19T05:34:10;25.3;;;2.8;;
82805;SDS011;72558;51.000;-3.112;2023-10-19T05:36:43;30.2;;;3.2;;
82805;SDS011;72558;51.000;-3.112;2023-10-19T05:39:16;22.4;;;2.7;;
82805;SDS011;72558;51.000;-3.112;2023-10-19T05:41:49;27.7;;;3.2;;
82805;SDS011;72558;51.000;-3.112;2023-10-19T05:44:21;26.9;;;3.1;;
82805;SDS011;72558;51.000;-3.112;2023-10-19T05:46:54;30.4;;;2.6;;
82805;SDS011;72558;51.000;-3.112;2023-10-19T05:49:27;30.1;;;3.1;;
82805;SDS011;72558;51.000;-3.112;2023-10-19T05:52:00;28.1;;;4.0;;
82805;SDS011;72558;51.000;-3.112;2023-10-19T05:54:32;32.2;;;3.0;;
82805;SDS011;72558;51.000;-3.112;2023-10-19T05:57:05;27.1;;;3.0;;
82805;SDS011;72558;51.000;-3.112;2023-10-19T05:59:38;23.1;;;2.8;;
82805;SDS011;72558;51.000;-3.112;2023-10-19T06:02:11;27.9;;;3.5;;
82805;SDS011;72558;51.000;-3.112;2023-10-19T06:04:43;32.8;;;3.5;;
82805;SDS011;72558;51.000;-3.112;2023-10-19T06:07:16;29.9;;;2.8;;
82805;SDS011;72558;51.000;-3.112;2023-10-19T06:09:49;36.1;;;3.9;;
82805;SDS011;72558;51.000;-3.112;2023-10-19T06:12:22;33.5;;;3.1;;
82805;SDS011;72558;51.000;-3.112;2023-10-19T06:14:55;33.9;;;2.8;;
82805;SDS011;72558;51.000;-3.112;2023-10-19T06:17:27;34.9;;;3.3;;
82805;SDS011;72558;51.000;-3.112;2023-10-19T06:20:00;33.3;;;3.2;;
82805;SDS011;72558;51.000;-3.112;2023-10-19T06:22:33;30.3;;;4.1;;
82805;SDS011;72558;51.000;-3.112;2023-10-19T06:25:06;26.4;;;3.3;;
82805;SDS011;72558;51.000;-3.112;2023-10-19T06:27:39;32.5;;;3.4;;
82805;SDS011;72558;51.000;-3.112;2023-10-19T06:30:11;32.3;;;3.3;;
82805;SDS011;72558;51.000;-3.112;2023-10-19T06:32:44;31.1;;;3.0;;
82805;SDS011;72558;51.000;-3.112;2023-10-19T06:35:19;27.8;;;2.9;;
82805;SDS011;72558;51.000;-3.112;2023-10-19T06:37:52;32.4;;;3.5;;
82805;SDS011;72558;51.000;-3.112;2023-10-19T06:40:25;31.3;;;3.4;;
82805;SDS011;72558;51.000;-3.112;2023-10-19T06:43:00;25.7;;;2.9;;
82805;SDS011;72558;51.000;-3.112;2023-10-19T06:45:32;27.4;;;3.1;;
82805;SDS011;72558;51.000;-3.112;2023-10-19T06:48:05;27.5;;;3.0;;
82805;SDS011;72558;51.000;-3.112;2023-10-19T06:50:38;29.0;;;2.4;;
82805;SDS011;72558;51.000;-3.112;2023-10-19T06:53:11;22.2;;;2.7;;
82805;SDS011;72558;51.000;-3.112;2023-10-19T06:55:44;27.1;;;2.7;;
82805;SDS011;72558;51.000;-3.112;2023-10-19T06:58:17;29.6;;;3.0;;
82805;SDS011;72558;51.000;-3.112;2023-10-19T07:00:49;25.6;;;3.4;;
82805;SDS011;72558;51.000;-3.112;2023-10-19T07:03:22;27.5;;;3.1;;
82805;SDS011;72558;51.000;-3.112;2023-10-19T07:05:55;35.2;;;3.6;;
82805;SDS011;72558;51.000;-3.112;2023-10-19T07:08:28;29.9;;;2.9;;
82805;SDS011;72558;51.000;-3.112;2023-10-19T07:11:00;41.1;;;3.5;;
82805;SDS011;72558;51.000;-3.112;2023-10-19T07:13:33;31.2;;;2.9;;
82805;SDS011;72558;51.000;-3.112;2023-10-19T07:16:06;35.9;;;4.0;;
82805;SDS011;72558;51.000;-3.112;2023-10-19T07:18:42;36.8;;;3.7;;
82805;SDS011;72558;51.000;-3.112;2023-10-19T07:21:15;31.9;;;3.3;;
82805;SDS011;72558;51.000;-3.112;2023-10-19T07:23:48;40.6;;;4.0;;
82805;SDS011;72558;51.000;-3.112;2023-10-19T07:26:21;36.7;;;3.4;;
82805;SDS011;72558;51.000;-3.112;2023-10-19T07:28:54;26.4;;;2.9;;
82805;SDS011;72558;51.000;-3.112;2023-10-19T07:31:26;32.1;;;3.4;;
82805;SDS011;72558;51.000;-3.112;2023-10-19T07:33:59;26.2;;;2.7;;
82805;SDS011;72558;51.000;-3.112;2023-10-19T07:36:32;21.3;;;3.2;;
82805;SDS011;72558;51.000;-3.112;2023-10-19T07:39:04;21.1;;;2.0;;
82805;SDS011;72558;51.000;-3.112;2023-10-19T07:41:37;13.1;;;1.6;;
82805;SDS011;72558;51.000;-3.112;2023-10-19T07:44:10;15.0;;;1.5;;
82805;SDS011;72558;51.000;-3.112;2023-10-19T07:46:42;11.0;;;1.5;;
82805;SDS011;72558;51.000;-3.112;2023-10-19T07:49:15;12.3;;;1.7;;
82805;SDS011;72558;51.000;-3.112;2023-10-19T07:51:48;10.6;;;1.7;;
82805;SDS011;72558;51.000;-3.112;2023-10-19T07:54:21;15.2;;;1.5;;
82805;SDS011;72558;51.000;-3.112;2023-10-19T07:56:53;11.8;;;1.2;;
82805;SDS011;72558;51.000;-3.112;2023-10-19T07:59:26;20.7;;;1.9;;
82805;SDS011;72558;51.000;-3.112;2023-10-19T08:01:59;22.2;;;2.8;;
82805;SDS011;72558;51.000;-3.112;2023-10-19T08:04:32;26.1;;;2.6;;
82805;SDS011;72558;51.000;-3.112;2023-10-19T08:07:05;25.8;;;2.5;;
82805;SDS011;72558;51.000;-3.112;2023-10-19T08:09:37;24.5;;;3.0;;
82805;SDS011;72558;51.000;-3.112;2023-10-19T08:12:10;28.2;;;3.5;;
82805;SDS011;72558;51.000;-3.112;2023-10-19T08:14:43;28.7;;;3.3;;
82805;SDS011;72558;51.000;-3.112;2023-10-19T08:17:15;30.6;;;3.9;;
82805;SDS011;72558;51.000;-3.112;2023-10-19T08:19:48;34.3;;;3.5;;
82805;SDS011;72558;51.000;-3.112;2023-10-19T08:22:21;31.3;;;3.4;;
82805;SDS011;72558;51.000;-3.112;2023-10-19T08:24:54;31.0;;;3.9;;
82805;SDS011;72558;51.000;-3.112;2023-10-19T08:27:26;34.3;;;3.7;;
82805;SDS011;72558;51.000;-3.112;2023-10-19T08:29:59;35.7;;;3.7;;
82805;SDS011;72558;51.000;-3.112;2023-10-19T08:32:32;35.2;;;3.9;;
82805;SDS011;72558;51.000;-3.112;2023-10-19T08:35:05;32.1;;;4.1;;
82805;SDS011;72558;51.000;-3.112;2023-10-19T08:37:38;29.9;;;4.4;;
82805;SDS011;72558;51.000;-3.112;2023-10-19T08:40:11;31.2;;;3.3;;
82805;SDS011;72558;51.000;-3.112;2023-10-19T08:42:44;24.3;;;2.9;;
82805;SDS011;72558;51.000;-3.112;2023-10-19T08:45:18;21.6;;;2.8;;
82805;SDS011;72558;51.000;-3.112;2023-10-19T08:47:51;26.4;;;3.2;;
82805;SDS011;72558;51.000;-3.112;2023-10-19T08:50:26;21.7;;;2.9;;
82805;SDS011;72558;51.000;-3.112;2023-10-19T08:52:59;19.4;;;2.7;;
82805;SDS011;72558;51.000;-3.112;2023-10-19T08:55:33;28.0;;;2.9;;
82805;SDS011;72558;51.000;-3.112;2023-10-19T08:58:06;22.9;;;2.6;;
82805;SDS011;72558;51.000;-3.112;2023-10-19T09:00:39;25.1;;;2.7;;
82805;SDS011;72558;51.000;-3.112;2023-10-19T09:03:16;22.5;;;2.7;;
82805;SDS011;72558;51.000;-3.112;2023-10-19T09:05:48;22.4;;;3.0;;
82805;SDS011;72558;51.000;-3.112;2023-10-19T09:08:21;26.5;;;2.9;;
82805;SDS011;72558;51.000;-3.112;2023-10-19T09:10:54;24.0;;;3.1;;
82805;SDS011;72558;51.000;-3.112;2023-10-19T09:13:27;24.0;;;2.7;;
82805;SDS011;72558;51.000;-3.112;2023-10-19T09:16:14;26.9;;;3.3;;
82805;SDS011;72558;51.000;-3.112;2023-10-19T09:18:48;25.0;;;3.6;;
82805;SDS011;72558;51.000;-3.112;2023-10-19T09:21:21;35.4;;;4.2;;
82805;SDS011;72558;51.000;-3.112;2023-10-19T09:23:54;24.9;;;3.4;;
82805;SDS011;72558;51.000;-3.112;2023-10-19T09:26:27;27.5;;;3.8;;
82805;SDS011;72558;51.000;-3.112;2023-10-19T09:29:00;35.6;;;3.9;;
82805;SDS011;72558;51.000;-3.112;2023-10-19T09:31:33;25.0;;;3.2;;
82805;SDS011;72558;51.000;-3.112;2023-10-19T09:34:06;31.0;;;4.1;;
82805;SDS011;72558;51.000;-3.112;2023-10-19T09:36:39;31.2;;;2.7;;
82805;SDS011;72558;51.000;-3.112;2023-10-19T09:39:12;25.8;;;3.0;;
82805;SDS011;72558;51.000;-3.112;2023-10-19T09:41:44;29.8;;;3.4;;
82805;SDS011;72558;51.000;-3.112;2023-10-19T09:44:18;29.5;;;3.6;;
82805;SDS011;72558;51.000;-3.112;2023-10-19T09:46:51;25.2;;;2.9;;
82805;SDS011;72558;51.000;-3.112;2023-10-19T09:49:26;23.8;;;2.8;;
82805;SDS011;72558;51.000;-3.112;2023-10-19T09:51:59;28.3;;;3.5;;
82805;SDS011;72558;51.000;-3.112;2023-10-19T09:54:31;28.7;;;3.0;;
82805;SDS011;72558;51.000;-3.112;2023-10-19T09:57:09;27.0;;;2.8;;
82805;SDS011;72558;51.000;-3.112;2023-10-19T09:59:44;25.9;;;3.0;;
82805;SDS011;72558;51.000;-3.112;2023-10-19T10:02:19;27.1;;;4.3;;
82805;SDS011;72558;51.000;-3.112;2023-10-19T10:04:52;27.3;;;3.4;;
82805;SDS011;72558;51.000;-3.112;2023-10-19T10:07:25;27.7;;;3.0;;
82805;SDS011;72558;51.000;-3.112;2023-10-19T10:09:57;25.5;;;3.6;;
82805;SDS011;72558;51.000;-3.112;2023-10-19T10:12:30;24.8;;;2.8;;
82805;SDS011;72558;51.000;-3.112;2023-10-19T10:15:03;24.9;;;3.2;;
82805;SDS011;72558;51.000;-3.112;2023-10-19T10:17:37;32.2;;;3.2;;
82805;SDS011;72558;51.000;-3.112;2023-10-19T10:20:10;24.7;;;3.0;;
82805;SDS011;72558;51.000;-3.112;2023-10-19T10:23:01;25.2;;;2.9;;
82805;SDS011;72558;51.000;-3.112;2023-10-19T10:25:51;21.6;;;2.9;;
82805;SDS011;72558;51.000;-3.112;2023-10-19T10:28:24;23.1;;;2.6;;
82805;SDS011;72558;51.000;-3.112;2023-10-19T10:30:57;25.0;;;3.0;;
82805;SDS011;72558;51.000;-3.112;2023-10-19T10:33:46;26.1;;;3.3;;
82805;SDS011;72558;51.000;-3.112;2023-10-19T10:36:19;33.3;;;3.8;;
82805;SDS011;72558;51.000;-3.112;2023-10-19T10:38:53;26.3;;;3.0;;
82805;SDS011;72558;51.000;-3.112;2023-10-19T10:41:33;26.3;;;3.1;;
82805;SDS011;72558;51.000;-3.112;2023-10-19T10:44:06;27.5;;;2.9;;
82805;SDS011;72558;51.000;-3.112;2023-10-19T10:46:39;22.9;;;2.5;;
82805;SDS011;72558;51.000;-3.112;2023-10-19T10:49:12;27.2;;;3.2;;
82805;SDS011;72558;51.000;-3.112;2023-10-19T10:51:46;26.3;;;3.6;;
82805;SDS011;72558;51.000;-3.112;2023-10-19T10:54:19;25.9;;;3.4;;
82805;SDS011;72558;51.000;-3.112;2023-10-19T10:56:53;26.8;;;3.0;;
82805;SDS011;72558;51.000;-3.112;2023-10-19T10:59:26;23.5;;;2.5;;
82805;SDS011;72558;51.000;-3.112;2023-10-19T11:01:58;20.7;;;2.4;;
82805;SDS011;72558;51.000;-3.112;2023-10-19T11:04:31;20.0;;;2.6;;
82805;SDS011;72558;51.000;-3.112;2023-10-19T11:07:04;25.8;;;2.4;;
82805;SDS011;72558;51.000;-3.112;2023-10-19T11:09:37;23.9;;;3.0;;
82805;SDS011;72558;51.000;-3.112;2023-10-19T11:12:15;24.3;;;3.2;;
82805;SDS011;72558;51.000;-3.112;2023-10-19T11:14:48;16.0;;;2.1;;
82805;SDS011;72558;51.000;-3.112;2023-10-19T11:17:24;18.7;;;1.9;;
82805;SDS011;72558;51.000;-3.112;2023-10-19T11:19:58;20.3;;;2.1;;
82805;SDS011;72558;51.000;-3.112;2023-10-19T11:22:31;19.2;;;2.2;;
82805;SDS011;72558;51.000;-3.112;2023-10-19T11:25:04;17.5;;;2.0;;
82805;SDS011;72558;51.000;-3.112;2023-10-19T11:27:49;18.2;;;1.9;;
82805;SDS011;72558;51.000;-3.112;2023-10-19T11:30:22;20.9;;;2.2;;
82805;SDS011;72558;51.000;-3.112;2023-10-19T11:32:55;19.3;;;2.0;;
82805;SDS011;72558;51.000;-3.112;2023-10-19T11:35:28;17.7;;;2.3;;
82805;SDS011;72558;51.000;-3.112;2023-10-19T11:38:02;17.9;;;1.7;;
82805;SDS011;72558;51.000;-3.112;2023-10-19T11:40:35;19.3;;;2.1;;
82805;SDS011;72558;51.000;-3.112;2023-10-19T11:43:07;13.9;;;2.1;;
82805;SDS011;72558;51.000;-3.112;2023-10-19T11:45:40;17.8;;;2.2;;
82805;SDS011;72558;51.000;-3.112;2023-10-19T11:48:13;21.1;;;2.4;;
82805;SDS011;72558;51.000;-3.112;2023-10-19T11:50:45;19.2;;;2.1;;
82805;SDS011;72558;51.000;-3.112;2023-10-19T11:53:18;17.8;;;2.3;;
82805;SDS011;72558;51.000;-3.112;2023-10-19T11:55:51;17.8;;;2.5;;
82805;SDS011;72558;51.000;-3.112;2023-10-19T11:58:24;17.5;;;2.1;;
82805;SDS011;72558;51.000;-3.112;2023-10-19T12:00:56;16.3;;;2.1;;
82805;SDS011;72558;51.000;-3.112;2023-10-19T12:03:29;16.7;;;1.9;;
82805;SDS011;72558;51.000;-3.112;2023-10-19T12:06:02;21.4;;;2.5;;
82805;SDS011;72558;51.000;-3.112;2023-10-19T12:08:35;14.5;;;1.9;;
82805;SDS011;72558;51.000;-3.112;2023-10-19T12:11:09;19.7;;;2.5;;
82805;SDS011;72558;51.000;-3.112;2023-10-19T12:13:42;21.2;;;2.4;;
82805;SDS011;72558;51.000;-3.112;2023-10-19T12:16:15;23.6;;;2.8;;
82805;SDS011;72558;51.000;-3.112;2023-10-19T12:18:47;18.6;;;2.2;;
82805;SDS011;72558;51.000;-3.112;2023-10-19T12:21:20;22.1;;;2.6;;
82805;SDS011;72558;51.000;-3.112;2023-10-19T12:23:53;21.9;;;2.1;;
82805;SDS011;72558;51.000;-3.112;2023-10-19T12:26:26;17.6;;;2.1;;
82805;SDS011;72558;51.000;-3.112;2023-10-19T12:28:59;16.0;;;1.9;;
82805;SDS011;72558;51.000;-3.112;2023-10-19T12:31:31;19.2;;;2.3;;
82805;SDS011;72558;51.000;-3.112;2023-10-19T12:34:04;17.3;;;2.2;;
82805;SDS011;72558;51.000;-3.112;2023-10-19T12:36:37;18.9;;;2.1;;
82805;SDS011;72558;51.000;-3.112;2023-10-19T12:39:10;20.5;;;2.3;;
82805;SDS011;72558;51.000;-3.112;2023-10-19T12:41:43;17.0;;;1.8;;
82805;SDS011;72558;51.000;-3.112;2023-10-19T12:44:15;18.4;;;2.1;;
82805;SDS011;72558;51.000;-3.112;2023-10-19T12:46:49;17.1;;;2.3;;
82805;SDS011;72558;51.000;-3.112;2023-10-19T12:49:21;19.4;;;1.8;;
82805;SDS011;72558;51.000;-3.112;2023-10-19T12:51:54;20.6;;;2.0;;
82805;SDS011;72558;51.000;-3.112;2023-10-19T12:54:26;15.9;;;1.9;;
82805;SDS011;72558;51.000;-3.112;2023-10-19T12:56:59;14.3;;;2.4;;
82805;SDS011;72558;51.000;-3.112;2023-10-19T12:59:32;21.9;;;2.8;;
82805;SDS011;72558;51.000;-3.112;2023-10-19T13:02:05;17.0;;;1.9;;
82805;SDS011;72558;51.000;-3.112;2023-10-19T13:04:38;16.5;;;2.5;;
82805;SDS011;72558;51.000;-3.112;2023-10-19T13:07:10;15.7;;;1.8;;
82805;SDS011;72558;51.000;-3.112;2023-10-19T13:09:43;13.6;;;1.4;;
82805;SDS011;72558;51.000;-3.112;2023-10-19T13:12:16;14.3;;;1.8;;
82805;SDS011;72558;51.000;-3.112;2023-10-19T13:14:48;17.7;;;2.0;;
82805;SDS011;72558;51.000;-3.112;2023-10-19T13:17:21;14.4;;;1.9;;
82805;SDS011;72558;51.000;-3.112;2023-10-19T13:19:54;16.2;;;2.1;;
82805;SDS011;72558;51.000;-3.112;2023-10-19T13:22:27;16.8;;;2.1;;
82805;SDS011;72558;51.000;-3.112;2023-10-19T13:24:59;17.1;;;1.9;;
82805;SDS011;72558;51.000;-3.112;2023-10-19T13:27:32;14.7;;;2.4;;
82805;SDS011;72558;51.000;-3.112;2023-10-19T13:30:05;17.6;;;2.0;;
82805;SDS011;72558;51.000;-3.112;2023-10-19T13:32:38;14.7;;;2.0;;
82805;SDS011;72558;51.000;-3.112;2023-10-19T13:35:11;16.0;;;2.3;;
82805;SDS011;72558;51.000;-3.112;2023-10-19T13:37:44;15.0;;;2.3;;
82805;SDS011;72558;51.000;-3.112;2023-10-19T13:40:16;15.7;;;2.2;;
82805;SDS011;72558;51.000;-3.112;2023-10-19T13:42:49;14.1;;;1.6;;
82805;SDS011;72558;51.000;-3.112;2023-10-19T13:45:22;19.6;;;2.7;;
82805;SDS011;72558;51.000;-3.112;2023-10-19T13:47:55;20.1;;;2.5;;
82805;SDS011;72558;51.000;-3.112;2023-10-19T13:50:27;20.4;;;2.3;;
82805;SDS011;72558;51.000;-3.112;2023-10-19T13:53:00;19.1;;;2.4;;
82805;SDS011;72558;51.000;-3.112;2023-10-19T13:55:33;17.6;;;2.6;;
82805;SDS011;72558;51.000;-3.112;2023-10-19T13:58:07;18.5;;;2.3;;
82805;SDS011;72558;51.000;-3.112;2023-10-19T14:00:39;21.9;;;2.4;;
82805;SDS011;72558;51.000;-3.112;2023-10-19T14:03:13;17.8;;;2.7;;
82805;SDS011;72558;51.000;-3.112;2023-10-19T14:05:46;23.6;;;3.2;;
82805;SDS011;72558;51.000;-3.112;2023-10-19T14:08:19;21.4;;;2.7;;
82805;SDS011;72558;51.000;-3.112;2023-10-19T14:10:51;16.3;;;1.8;;
82805;SDS011;72558;51.000;-3.112;2023-10-19T14:13:24;23.1;;;3.1;;
82805;SDS011;72558;51.000;-3.112;2023-10-19T14:15:57;25.0;;;2.7;;
82805;SDS011;72558;51.000;-3.112;2023-10-19T14:18:30;17.5;;;2.8;;
82805;SDS011;72558;51.000;-3.112;2023-10-19T14:21:02;20.4;;;2.7;;
82805;SDS011;72558;51.000;-3.112;2023-10-19T14:23:42;19.2;;;2.6;;
82805;SDS011;72558;51.000;-3.112;2023-10-19T14:26:15;20.6;;;2.3;;
82805;SDS011;72558;51.000;-3.112;2023-10-19T14:28:48;21.9;;;2.4;;
82805;SDS011;72558;51.000;-3.112;2023-10-19T14:31:21;19.8;;;2.4;;
82805;SDS011;72558;51.000;-3.112;2023-10-19T14:33:53;21.7;;;3.1;;
82805;SDS011;72558;51.000;-3.112;2023-10-19T14:36:26;25.4;;;3.0;;
82805;SDS011;72558;51.000;-3.112;2023-10-19T14:38:59;21.6;;;2.7;;
82805;SDS011;72558;51.000;-3.112;2023-10-19T14:41:31;22.9;;;3.0;;
82805;SDS011;72558;51.000;-3.112;2023-10-19T14:44:04;19.3;;;2.7;;
82805;SDS011;72558;51.000;-3.112;2023-10-19T14:46:37;24.1;;;2.7;;
82805;SDS011;72558;51.000;-3.112;2023-10-19T14:49:10;25.4;;;2.7;;
82805;SDS011;72558;51.000;-3.112;2023-10-19T14:51:42;22.9;;;2.7;;
82805;SDS011;72558;51.000;-3.112;2023-10-19T14:54:15;25.7;;;3.4;;
82805;SDS011;72558;51.000;-3.112;2023-10-19T14:56:48;21.3;;;2.9;;
82805;SDS011;72558;51.000;-3.112;2023-10-19T14:59:20;23.8;;;2.9;;
82805;SDS011;72558;51.000;-3.112;2023-10-19T15:01:53;18.8;;;2.0;;
82805;SDS011;72558;51.000;-3.112;2023-10-19T15:04:26;18.2;;;1.8;;
82805;SDS011;72558;51.000;-3.112;2023-10-19T15:06:58;16.7;;;1.7;;
82805;SDS011;72558;51.000;-3.112;2023-10-19T15:09:31;16.4;;;2.1;;
82805;SDS011;72558;51.000;-3.112;2023-10-19T15:12:04;21.6;;;2.1;;
82805;SDS011;72558;51.000;-3.112;2023-10-19T15:14:37;18.7;;;2.3;;
82805;SDS011;72558;51.000;-3.112;2023-10-19T15:17:12;19.0;;;2.0;;
82805;SDS011;72558;51.000;-3.112;2023-10-19T15:19:45;23.2;;;2.6;;
82805;SDS011;72558;51.000;-3.112;2023-10-19T15:22:17;20.3;;;2.7;;
82805;SDS011;72558;51.000;-3.112;2023-10-19T15:24:50;19.6;;;2.8;;